Time;durP1;ratioP1;P1;durP2;ratioP2;P2;SDS_P1;SDS_P2;PMS_P1;PMS_P2;Temp;Humidity;BMP_temperature;BMP_pressure;BME280_temperature;BME280_humidity;BME280_pressure;Samples;Min_cycle;Max_cycle;Signal;HPM_P1;HPM_P2
2022/10/19 00:01:10;;;;;;;4.40;2.90;;;;;;;9.80;67.18;95083.09;5070495;28;20310;-59
2022/10/19 00:03:37;;;;;;;4.53;2.77;;;;;;;9.83;67.95;95057.50;5070474;28;20185;-59
2022/10/19 00:06:24;;;;;;;3.00;2.70;;;;;;;9.76;68.45;95060.59;5070967;28;20558;-62
2022/10/19 00:08:50;;;;;;;9.80;3.77;;;;;;;9.83;67.97;95065.09;5070935;28;20217;-61
2022/10/19 00:11:15;;;;;;;3.60;3.00;;;;;;;9.77;67.71;95063.03;5070536;28;20196;-59
2022/10/19 00:13:41;;;;;;;5.40;3.67;;;;;;;9.81;69.26;95039.03;5070373;28;20195;-60
2022/10/19 00:16:14;;;;;;;5.40;3.50;;;;;;;9.80;68.59;95050.09;5070483;28;20192;-59
2022/10/19 00:18:44;;;;;;;9.20;3.57;;;;;;;9.81;69.17;95048.38;5073948;28;20317;-60
2022/10/19 00:21:13;;;;;;;4.43;4.00;;;;;;;9.68;68.70;95035.78;5074284;28;20192;-61
2022/10/19 00:23:39;;;;;;;6.67;4.13;;;;;;;9.73;69.21;95037.97;5082614;22;20200;-58
2022/10/19 00:26:04;;;;;;;6.97;3.93;;;;;;;9.53;70.50;95011.56;5032477;28;20693;-59
2022/10/19 00:28:30;;;;;;;5.13;3.33;;;;;;;9.62;70.70;95023.56;5034104;28;20186;-60
2022/10/19 00:30:56;;;;;;;5.27;3.80;;;;;;;9.89;70.37;95015.59;5033971;28;20645;-61
2022/10/19 00:33:22;;;;;;;4.40;3.43;;;;;;;9.91;70.32;95021.34;5034043;28;20229;-61
2022/10/19 00:35:51;;;;;;;4.60;3.43;;;;;;;9.80;70.64;95008.66;5033609;28;20212;-59
2022/10/19 00:38:19;;;;;;;5.67;3.90;;;;;;;9.69;70.07;95014.56;5034391;28;20229;-60
2022/10/19 00:40:45;;;;;;;8.40;4.33;;;;;;;9.57;71.00;94990.09;5034703;28;20246;-60
2022/10/19 00:43:18;;;;;;;6.27;4.20;;;;;;;9.54;70.79;94992.03;5034381;28;20198;-57
2022/10/19 00:45:43;;;;;;;5.47;3.77;;;;;;;9.45;71.29;94992.75;5034506;28;20253;-59
2022/10/19 00:48:11;;;;;;;7.60;4.07;;;;;;;9.29;70.61;95001.50;5033866;28;20305;-62
2022/10/19 00:50:37;;;;;;;8.30;4.43;;;;;;;9.24;71.86;94970.59;5033628;28;20217;-58
2022/10/19 00:53:02;;;;;;;7.17;3.87;;;;;;;9.28;70.97;94986.38;5034196;28;20186;-61
2022/10/19 00:55:29;;;;;;;7.20;4.50;;;;;;;9.08;71.39;94972.66;5033269;28;20300;-60
2022/10/19 00:57:54;;;;;;;10.83;4.30;;;;;;;9.00;73.87;94938.63;5033739;28;20174;-58
2022/10/19 01:00:20;;;;;;;4.67;3.77;;;;;;;9.07;73.52;94957.56;5033756;28;20718;-60
2022/10/19 01:02:46;;;;;;;4.57;3.60;;;;;;;9.29;71.06;94990.56;5033165;28;20714;-60
2022/10/19 01:05:13;;;;;;;5.87;3.87;;;;;;;9.24;71.07;94974.84;5033599;28;20205;-61
2022/10/19 01:07:39;;;;;;;6.17;4.17;;;;;;;9.15;71.54;94971.28;5016060;28;20189;-60
2022/10/19 01:10:05;;;;;;;4.63;3.57;;;;;;;8.99;73.08;94942.06;5033427;28;20662;-60
2022/10/19 01:12:42;;;;;;;5.60;3.50;;;;;;;8.86;73.54;94948.97;5033027;28;20182;-60
2022/10/19 01:15:19;;;;;;;4.40;3.80;;;;;;;8.90;74.35;94923.31;5033543;28;20205;-60
2022/10/19 01:17:59;;;;;;;5.53;3.20;;;;;;;8.85;74.21;94924.53;5033454;28;20632;-60
2022/10/19 01:20:43;;;;;;;6.80;3.43;;;;;;;9.04;72.98;94957.78;5033491;28;20626;-60
2022/10/19 01:23:11;;;;;;;6.03;3.87;;;;;;;8.91;73.98;94941.84;5033018;28;20198;-60
2022/10/19 01:25:58;;;;;;;4.50;3.27;;;;;;;9.05;73.86;94944.97;5033087;28;20224;-57
2022/10/19 01:29:01;;;;;;;4.47;3.23;;;;;;;9.01;72.02;94971.47;5032546;28;20190;-61
2022/10/19 01:31:34;;;;;;;7.10;3.37;;;;;;;8.91;72.27;94947.72;5033434;28;20687;-61
2022/10/19 01:34:07;;;;;;;5.37;2.90;;;;;;;9.10;72.53;94954.78;5033083;28;20241;-59
2022/10/19 01:36:46;;;;;;;4.10;3.60;;;;;;;9.09;71.15;94976.78;5032774;28;20205;-60
2022/10/19 01:39:28;;;;;;;5.53;3.70;;;;;;;9.12;72.22;94950.41;5032954;28;20267;-60
2022/10/19 01:42:06;;;;;;;5.07;3.27;;;;;;;9.14;72.33;94943.50;5033115;28;20198;-59
2022/10/19 01:44:35;;;;;;;4.80;3.53;;;;;;;9.24;72.72;94945.22;5033237;28;20209;-61
2022/10/19 01:47:08;;;;;;;7.03;3.30;;;;;;;9.44;70.92;94968.28;5033371;28;20702;-60
2022/10/19 01:49:46;;;;;;;3.77;3.10;;;;;;;9.42;69.00;94998.84;5033002;28;20301;-60
2022/10/19 01:52:17;;;;;;;5.43;3.10;;;;;;;9.53;71.53;94960.81;5032743;28;20209;-59
2022/10/19 01:54:46;;;;;;;4.77;2.80;;;;;;;9.27;72.28;94934.06;5032639;28;20209;-59
2022/10/19 01:57:15;;;;;;;5.03;3.03;;;;;;;9.23;72.96;94928.38;5032456;28;20194;-60
2022/10/19 01:59:42;;;;;;;7.03;4.47;;;;;;;9.12;73.05;94919.97;5014794;28;20214;-57
2022/10/19 02:02:12;;;;;;;5.90;3.40;;;;;;;9.04;73.94;94927.34;5033062;28;20194;-59
2022/10/19 02:04:39;;;;;;;5.40;3.73;;;;;;;8.75;74.87;94890.66;5032439;28;20209;-61
2022/10/19 02:07:07;;;;;;;7.40;3.67;;;;;;;8.78;75.35;94900.59;5032402;28;20191;-60
2022/10/19 02:09:32;;;;;;;4.93;3.70;;;;;;;8.93;74.68;94917.19;5014571;28;20692;-60
2022/10/19 02:12:02;;;;;;;6.77;3.73;;;;;;;8.70;74.93;94907.94;5032170;28;20719;-62
2022/10/19 02:14:37;;;;;;;5.30;3.80;;;;;;;8.80;73.87;94924.09;5031010;28;20297;-60
2022/10/19 02:17:13;;;;;;;5.23;3.47;;;;;;;8.53;74.97;94905.81;5032372;28;20193;-62
2022/10/19 02:19:39;;;;;;;5.80;3.50;;;;;;;8.65;72.41;94945.47;5032241;28;20214;-60
2022/10/19 02:22:06;;;;;;;6.77;2.87;;;;;;;8.55;73.17;94936.91;5032200;28;20541;-59
2022/10/19 02:24:31;;;;;;;5.93;3.10;;;;;;;8.59;73.56;94925.63;5032119;28;20758;-57
2022/10/19 02:26:59;;;;;;;4.20;2.80;;;;;;;8.60;73.35;94932.34;5032188;28;20217;-61
2022/10/19 02:29:25;;;;;;;4.77;3.37;;;;;;;8.51;73.37;94930.44;5032293;28;20221;-61
2022/10/19 02:31:51;;;;;;;4.47;2.83;;;;;;;8.29;73.96;94926.94;5031833;28;20556;-61
2022/10/19 02:34:16;;;;;;;8.47;3.23;;;;;;;8.05;74.83;94900.00;5032236;28;20214;-61
2022/10/19 02:36:42;;;;;;;4.80;3.27;;;;;;;7.88;75.11;94902.91;5031923;28;20194;-61
2022/10/19 02:39:08;;;;;;;4.67;2.90;;;;;;;7.80;75.29;94895.06;5031927;28;20720;-59
2022/10/19 02:41:41;;;;;;;6.00;3.43;;;;;;;7.64;75.75;94890.22;5031279;28;20202;-59
2022/10/19 02:47:02;;;;;;;3.60;2.73;;;;;;;7.65;76.28;94897.72;5098459;22;20238;-58
2022/10/19 02:49:29;;;;;;;6.50;2.50;;;;;;;7.74;77.15;94885.38;5091934;28;20569;-59
2022/10/19 02:52:09;;;;;;;4.00;2.90;;;;;;;7.62;75.96;94894.59;5091967;28;20188;-58
2022/10/19 02:54:35;;;;;;;4.13;2.70;;;;;;;7.65;77.91;94881.75;5091863;28;20303;-60
2022/10/19 02:57:07;;;;;;;4.43;3.13;;;;;;;7.65;78.42;94861.50;5091656;28;20547;-58
2022/10/19 02:59:33;;;;;;;3.43;2.63;;;;;;;7.81;77.10;94884.81;5091802;28;20704;-60
2022/10/19 03:01:58;;;;;;;5.77;2.93;;;;;;;7.98;75.39;94902.13;5091629;28;20180;-61
2022/10/19 03:04:23;;;;;;;3.77;2.90;;;;;;;7.97;75.73;94909.84;5091630;28;20215;-60
2022/10/19 03:06:49;;;;;;;6.27;2.50;;;;;;;8.15;74.11;94928.81;5091777;28;20211;-59
2022/10/19 03:09:14;;;;;;;4.07;2.20;;;;;;;8.02;74.71;94926.31;5091375;28;20216;-59
2022/10/19 03:11:40;;;;;;;4.07;3.03;;;;;;;8.00;74.46;94927.38;5091432;28;20214;-61
2022/10/19 03:14:05;;;;;;;4.57;2.83;;;;;;;8.20;75.00;94935.16;5091280;28;20211;-60
2022/10/19 03:16:31;;;;;;;3.90;2.90;;;;;;;8.19;75.04;94917.53;5091404;28;20180;-61
2022/10/19 03:18:56;;;;;;;3.33;2.87;;;;;;;8.23;74.92;94929.06;5083388;28;20266;-59
2022/10/19 03:21:22;;;;;;;5.13;2.80;;;;;;;8.15;75.42;94923.72;5070990;28;20207;-61
2022/10/19 03:23:47;;;;;;;4.90;3.13;;;;;;;8.18;75.17;94918.47;5069744;28;20239;-59
2022/10/19 03:26:15;;;;;;;4.47;2.60;;;;;;;8.19;76.44;94908.22;5069751;28;20289;-62
2022/10/19 03:28:40;;;;;;;4.53;2.80;;;;;;;8.26;75.81;94913.69;5069363;28;20185;-58
2022/10/19 03:31:05;;;;;;;3.97;2.70;;;;;;;8.33;75.70;94912.31;5069527;28;20192;-61
2022/10/19 03:33:31;;;;;;;6.33;2.87;;;;;;;8.34;75.19;94932.47;5069357;28;20635;-59
2022/10/19 03:36:16;;;;;;;6.33;2.80;;;;;;;8.32;75.33;94919.09;5069559;28;20207;-59
2022/10/19 03:38:42;;;;;;;4.67;2.80;;;;;;;8.54;74.36;94942.91;5069150;28;20246;-60
2022/10/19 03:41:08;;;;;;;5.17;3.00;;;;;;;8.18;73.94;94929.38;5069242;28;20565;-60
2022/10/19 03:43:34;;;;;;;8.10;3.53;;;;;;;8.23;73.96;94951.84;5068844;28;20193;-59
2022/10/19 03:45:59;;;;;;;5.63;3.40;;;;;;;8.24;70.62;94986.41;5071100;28;20580;-59
2022/10/19 03:48:25;;;;;;;4.00;2.80;;;;;;;8.11;70.44;94986.44;5080358;28;20195;-59
2022/10/19 03:51:08;;;;;;;6.20;2.50;;;;;;;7.80;70.55;94969.22;5090204;28;20761;-60
2022/10/19 03:53:34;;;;;;;4.70;2.67;;;;;;;7.93;72.12;94947.22;5096283;28;20267;-58
2022/10/19 03:56:22;;;;;;;5.63;3.10;;;;;;;7.89;71.32;94968.59;5096573;28;20245;-62
2022/10/19 03:58:49;;;;;;;4.00;2.53;;;;;;;7.99;72.39;94938.38;5094873;28;20216;-62
2022/10/19 04:01:16;;;;;;;5.17;2.97;;;;;;;7.90;74.03;94911.22;5095999;28;20690;-60
2022/10/19 04:03:41;;;;;;;2.70;2.47;;;;;;;8.04;70.43;94977.66;5096076;28;20251;-60
2022/10/19 04:06:11;;;;;;;8.63;3.20;;;;;;;7.94;70.29;94979.19;5095866;28;20271;-60
2022/10/19 04:08:47;;;;;;;3.70;2.57;;;;;;;7.73;71.57;94940.22;5095815;28;20195;-59
2022/10/19 04:11:14;;;;;;;4.67;2.93;;;;;;;7.75;71.23;94962.88;5095924;28;20192;-59
2022/10/19 04:13:40;;;;;;;6.10;2.73;;;;;;;7.81;72.25;94952.31;5095941;28;20195;-58
2022/10/19 04:16:06;;;;;;;2.97;2.60;;;;;;;7.72;72.83;94908.22;5096321;28;20188;-61
2022/10/19 04:18:32;;;;;;;6.07;2.40;;;;;;;7.86;72.64;94933.38;5095816;28;20267;-60
2022/10/19 04:20:59;;;;;;;4.67;2.57;;;;;;;7.73;73.04;94914.91;5076657;28;20257;-61
2022/10/19 04:23:30;;;;;;;4.70;2.80;;;;;;;7.62;73.60;94902.19;5075648;28;20235;-61
2022/10/19 04:26:04;;;;;;;4.17;2.57;;;;;;;7.64;73.29;94916.34;5076076;28;20201;-59
2022/10/19 04:28:30;;;;;;;4.63;3.30;;;;;;;7.53;73.84;94908.69;5075433;28;20683;-61
2022/10/19 04:30:56;;;;;;;6.00;3.30;;;;;;;7.33;75.07;94860.41;5075542;28;20224;-60
2022/10/19 04:33:21;;;;;;;8.27;3.07;;;;;;;7.39;75.11;94875.94;5075571;28;20584;-61
2022/10/19 04:35:47;;;;;;;7.37;4.67;;;;;;;7.54;74.41;94895.13;5075734;28;20212;-59
2022/10/19 04:38:12;;;;;;;4.70;2.93;;;;;;;7.63;73.30;94912.19;5075582;28;20204;-62
2022/10/19 04:40:38;;;;;;;7.07;3.20;;;;;;;7.54;73.45;94915.38;5075295;28;20216;-59
2022/10/19 04:43:04;;;;;;;6.03;3.67;;;;;;;7.66;73.13;94903.59;5075432;28;20204;-58
2022/10/19 04:45:30;;;;;;;8.97;3.97;;;;;;;7.60;72.62;94909.06;5075413;28;20724;-58
2022/10/19 04:47:55;;;;;;;4.47;3.27;;;;;;;7.64;74.02;94902.88;5075397;28;20197;-58
2022/10/19 04:50:24;;;;;;;9.00;4.03;;;;;;;7.68;73.51;94906.81;5074884;28;20354;-59
2022/10/19 04:52:50;;;;;;;8.70;3.47;;;;;;;7.80;73.30;94911.03;5076595;28;20213;-60
2022/10/19 04:55:16;;;;;;;7.07;3.60;;;;;;;7.88;69.83;94972.03;5091271;28;20274;-59
2022/10/19 04:57:41;;;;;;;5.67;3.10;;;;;;;7.55;69.52;94971.81;5096779;28;20187;-62
2022/10/19 05:00:08;;;;;;;4.63;3.37;;;;;;;7.57;71.71;94921.94;5080587;28;20216;-61
2022/10/19 05:02:33;;;;;;;5.33;3.47;;;;;;;7.48;72.50;94930.97;5074260;28;20189;-61
2022/10/19 05:04:59;;;;;;;9.37;4.00;;;;;;;7.22;72.14;94921.81;5071589;28;20318;-61
2022/10/19 05:07:24;;;;;;;12.80;6.30;;;;;;;7.16;72.93;94908.75;5072170;28;20184;-59
2022/10/19 05:09:50;;;;;;;8.63;4.27;;;;;;;6.97;73.35;94898.28;5092039;28;20310;-58
2022/10/19 05:12:15;;;;;;;7.77;4.07;;;;;;;6.73;74.44;94880.47;5092191;28;20267;-57
2022/10/19 05:14:40;;;;;;;7.23;4.67;;;;;;;6.55;75.02;94874.94;5081027;28;20223;-58
2022/10/19 05:17:06;;;;;;;3.87;2.80;;;;;;;6.46;75.63;94862.09;5070603;28;20188;-61
2022/10/19 05:19:31;;;;;;;14.50;4.93;;;;;;;6.33;76.85;94839.38;5071230;28;20714;-58
2022/10/19 05:21:57;;;;;;;7.37;4.00;;;;;;;6.21;77.13;94834.31;5071886;28;20194;-59
2022/10/19 05:24:22;;;;;;;3.80;2.87;;;;;;;6.08;78.01;94820.88;5071620;28;20212;-61
2022/10/19 05:26:47;;;;;;;6.63;3.10;;;;;;;6.16;78.93;94811.88;5071676;28;20202;-61
2022/10/19 05:29:13;;;;;;;9.37;3.57;;;;;;;6.14;78.09;94833.88;5071193;28;21047;-59
2022/10/19 05:31:39;;;;;;;5.77;3.60;;;;;;;6.52;84.59;94907.97;5071509;28;20220;-58
2022/10/19 05:34:05;;;;;;;7.17;3.47;;;;;;;6.59;81.01;94956.34;5071306;28;20319;-60
2022/10/19 05:36:35;;;;;;;7.03;3.70;;;;;;;6.73;78.67;94982.34;5071527;28;20268;-62
2022/10/19 05:39:27;;;;;;;13.50;3.80;;;;;;;6.94;79.10;94971.75;5071282;28;20248;-58
2022/10/19 05:41:52;;;;;;;8.00;2.93;;;;;;;7.18;75.71;95038.38;5068136;28;20270;-58
2022/10/19 05:44:21;;;;;;;10.10;3.97;;;;;;;7.16;75.71;95014.94;5072876;28;20295;-61
2022/10/19 05:46:47;;;;;;;10.93;4.67;;;;;;;7.27;75.25;95043.66;5079602;28;20184;-57
2022/10/19 05:49:14;;;;;;;5.73;3.87;;;;;;;7.39;74.55;95052.16;5090990;28;20227;-59
2022/10/19 05:51:39;;;;;;;10.87;4.30;;;;;;;7.51;72.93;95081.72;5091285;28;20662;-62
2022/10/19 05:54:06;;;;;;;10.27;5.03;;;;;;;7.61;73.32;95067.53;5091596;28;20220;-59
2022/10/19 05:56:33;;;;;;;12.37;6.07;;;;;;;7.74;73.09;95058.22;5091207;28;20282;-59
2022/10/19 05:59:01;;;;;;;13.80;7.37;;;;;;;7.74;74.90;95035.44;5090017;28;20227;-61
2022/10/19 06:01:27;;;;;;;13.10;6.57;;;;;;;7.65;74.90;95018.34;5079221;28;20192;-60
2022/10/19 06:03:55;;;;;;;15.67;7.10;;;;;;;7.86;75.36;95019.41;5078367;28;20213;-59
2022/10/19 06:06:22;;;;;;;16.83;6.87;;;;;;;8.00;74.19;95049.66;5072093;28;20185;-61
2022/10/19 06:08:48;;;;;;;13.17;6.87;;;;;;;7.93;74.72;95037.53;5071658;28;20205;-60
2022/10/19 06:11:17;;;;;;;13.53;7.07;;;;;;;7.83;74.23;95041.59;5078789;28;20768;-61
2022/10/19 06:13:44;;;;;;;12.10;7.47;;;;;;;7.93;74.14;95045.13;5092217;28;20269;-62
2022/10/19 06:16:12;;;;;;;14.40;6.77;;;;;;;7.73;73.44;95060.84;5082446;28;20586;-61
2022/10/19 06:18:38;;;;;;;19.10;7.37;;;;;;;7.71;74.26;95050.84;5070494;28;20180;-62
2022/10/19 06:21:06;;;;;;;14.93;7.50;;;;;;;7.79;74.45;95066.31;5077609;28;20220;-60
2022/10/19 06:23:33;;;;;;;18.37;8.93;;;;;;;7.94;73.79;95067.78;5090760;28;20215;-61
2022/10/19 06:26:08;;;;;;;17.60;8.20;;;;;;;7.93;74.32;95057.78;5074813;28;20250;-61
2022/10/19 06:28:35;;;;;;;18.63;7.83;;;;;;;8.11;73.48;95075.06;5071986;28;20188;-58
2022/10/19 06:31:01;;;;;;;19.87;7.33;;;;;;;8.32;72.47;95098.16;5087420;28;20212;-59
2022/10/19 06:33:28;;;;;;;15.80;7.40;;;;;;;8.10;73.07;95077.72;5090756;28;20245;-61
2022/10/19 06:35:54;;;;;;;12.07;6.50;;;;;;;8.24;72.49;95101.16;5088858;28;20199;-62
2022/10/19 06:38:20;;;;;;;16.13;8.13;;;;;;;8.27;71.27;95116.19;5090399;28;20662;-61
2022/10/19 06:40:47;;;;;;;13.90;7.10;;;;;;;8.36;71.31;95115.53;5043741;22;20226;-58
2022/10/19 06:43:13;;;;;;;13.47;7.10;;;;;;;8.30;71.09;95110.91;5030411;28;20251;-61
2022/10/19 06:45:39;;;;;;;17.40;7.17;;;;;;;8.23;72.61;95091.94;5014554;28;20238;-58
2022/10/19 06:48:05;;;;;;;12.47;6.97;;;;;;;8.35;71.23;95111.41;5011725;28;20629;-59
2022/10/19 06:50:31;;;;;;;10.00;6.77;;;;;;;8.53;72.11;95113.56;4994416;28;20285;-61
2022/10/19 06:52:58;;;;;;;12.90;7.60;;;;;;;8.65;70.77;95122.84;5007935;28;20199;-62
2022/10/19 06:55:23;;;;;;;11.70;6.97;;;;;;;9.15;69.66;95153.09;5011895;28;20222;-58
2022/10/19 06:57:49;;;;;;;13.63;7.87;;;;;;;9.21;69.48;95145.84;5000019;28;20200;-60
2022/10/19 07:00:15;;;;;;;14.37;6.93;;;;;;;9.16;70.42;95125.06;5004189;28;20241;-59
2022/10/19 07:02:40;;;;;;;17.37;8.27;;;;;;;9.34;68.78;95153.38;5009380;28;20214;-61
2022/10/19 07:05:06;;;;;;;14.67;8.23;;;;;;;9.53;68.98;95140.19;5010554;28;20245;-59
2022/10/19 07:07:32;;;;;;;13.73;7.50;;;;;;;9.56;69.35;95130.59;5010377;28;20626;-58
2022/10/19 07:09:57;;;;;;;16.30;8.23;;;;;;;9.85;68.41;95147.06;5011090;28;20571;-61
2022/10/19 07:12:23;;;;;;;19.03;7.60;;;;;;;10.11;66.75;95184.06;5010516;28;20183;-59
2022/10/19 07:14:48;;;;;;;13.83;7.60;;;;;;;10.00;67.69;95173.03;5012148;28;20365;-60
2022/10/19 07:17:13;;;;;;;14.20;7.57;;;;;;;10.21;67.04;95173.19;5010652;28;20194;-62
2022/10/19 07:19:39;;;;;;;11.93;7.00;;;;;;;10.26;66.43;95197.31;4999071;28;20302;-61
2022/10/19 07:22:04;;;;;;;11.77;7.50;;;;;;;10.38;64.76;95232.03;5010350;28;20284;-61
2022/10/19 07:24:30;;;;;;;14.07;7.03;;;;;;;10.34;65.37;95199.31;5008368;28;20214;-62
2022/10/19 07:26:57;;;;;;;15.33;7.13;;;;;;;10.40;66.72;95163.28;5008885;28;20240;-60
2022/10/19 07:29:22;;;;;;;18.00;8.83;;;;;;;10.31;64.36;95235.94;5009736;28;20623;-60
2022/10/19 07:31:48;;;;;;;17.83;8.10;;;;;;;10.53;65.36;95200.34;5019864;28;20194;-61
2022/10/19 07:34:14;;;;;;;9.43;7.10;;;;;;;10.61;64.06;95240.44;5030937;28;20210;-62
2022/10/19 07:36:44;;;;;;;13.73;7.77;;;;;;;10.60;62.85;95247.28;5013956;28;20217;-61
2022/10/19 07:39:11;;;;;;;14.40;8.03;;;;;;;10.84;62.68;95258.13;5010413;28;20646;-60
2022/10/19 07:41:37;;;;;;;15.07;8.40;;;;;;;10.80;62.28;95261.03;5012334;28;20186;-60
2022/10/19 07:44:02;;;;;;;14.87;9.37;;;;;;;11.10;61.68;95265.50;5031048;28;20210;-60
2022/10/19 07:46:32;;;;;;;27.83;9.20;;;;;;;11.20;62.69;95228.22;5023793;28;20202;-61
2022/10/19 07:48:58;;;;;;;12.50;7.63;;;;;;;11.60;62.25;95239.44;5009260;28;20259;-60
2022/10/19 07:51:24;;;;;;;15.70;8.47;;;;;;;11.76;61.77;95244.97;5008174;28;20190;-59
2022/10/19 07:53:50;;;;;;;15.27;9.30;;;;;;;11.94;62.49;95209.59;5009046;28;20210;-61
2022/10/19 07:56:18;;;;;;;13.97;9.07;;;;;;;12.21;62.05;95231.06;5008673;28;20673;-62
2022/10/19 07:58:44;;;;;;;18.93;9.70;;;;;;;12.38;61.62;95225.38;5009523;28;20190;-61
2022/10/19 08:01:12;;;;;;;15.13;9.83;;;;;;;12.63;61.49;95231.81;5007780;28;20583;-58
2022/10/19 08:03:38;;;;;;;14.83;8.77;;;;;;;12.74;61.78;95221.53;5010744;28;20247;-59
2022/10/19 08:06:06;;;;;;;17.53;10.17;;;;;;;12.98;59.36;95265.41;5000767;28;20223;-60
2022/10/19 08:08:32;;;;;;;16.33;9.10;;;;;;;13.09;56.55;95329.13;4988624;28;20204;-58
2022/10/19 08:11:10;;;;;;;16.13;9.33;;;;;;;13.39;56.44;95336.75;4997867;28;20212;-60
2022/10/19 08:13:36;;;;;;;22.83;10.20;;;;;;;13.58;55.60;95368.41;5009805;28;20577;-58
2022/10/19 08:16:02;;;;;;;18.13;10.43;;;;;;;13.59;54.36;95382.81;5008086;28;20585;-61
2022/10/19 08:18:28;;;;;;;16.70;10.23;;;;;;;13.82;54.90;95356.09;5008872;28;20212;-62
2022/10/19 08:20:53;;;;;;;17.55;8.77;;;;;;;14.45;74.63;94886.66;5009444;28;20280;-60
2022/10/19 08:23:19;;;;;;;17.42;9.25;;;;;;;15.41;69.89;95106.84;5010709;28;20199;-59
2022/10/19 08:25:44;;;;;;;18.10;10.75;;;;;;;15.95;64.43;95155.34;4999963;28;20322;-60
2022/10/19 08:28:10;;;;;;;18.35;8.98;;;;;;;16.37;56.81;95379.50;5005360;28;20276;-60
2022/10/19 08:30:36;;;;;;;18.88;9.70;;;;;;;16.81;57.70;95298.19;5010228;28;20222;-60
2022/10/19 08:33:04;;;;;;;22.27;11.40;;;;;;;17.35;57.20;95308.06;4993532;28;20196;-59
2022/10/19 08:35:30;;;;;;;25.27;12.85;;;;;;;17.81;55.23;95352.31;4989611;28;20219;-61
2022/10/19 08:37:56;;;;;;;22.55;11.68;;;;;;;17.94;55.90;95281.41;4989801;28;20207;-60
2022/10/19 08:40:25;;;;;;;20.52;10.23;;;;;;;18.30;52.78;95405.50;4992807;28;20242;-61
2022/10/19 08:43:01;;;;;;;24.20;11.35;;;;;;;18.66;54.07;95336.50;4992730;28;20730;-60
2022/10/19 08:45:52;;;;;;;21.52;10.38;;;;;;;18.90;48.98;95457.59;4993142;28;20215;-59
2022/10/19 08:48:27;;;;;;;21.30;10.93;;;;;;;19.25;50.09;95428.88;5012469;28;20685;-59
2022/10/19 08:50:55;;;;;;;15.73;9.55;;;;;;;19.44;45.73;95554.94;5013085;28;20213;-60
2022/10/19 08:53:23;;;;;;;14.45;9.25;;;;;;;19.52;49.92;95395.00;4992583;28;20203;-59
2022/10/19 08:56:32;;;;;;;24.92;10.60;;;;;;;19.69;43.53;95603.00;4992673;28;20211;-61
2022/10/19 08:59:01;;;;;;;18.50;9.38;;;;;;;20.07;47.24;95447.41;4987907;28;20227;-60
2022/10/19 09:01:42;;;;;;;15.43;9.23;;;;;;;20.04;43.44;95571.66;4996479;28;20737;-61
2022/10/19 09:04:17;;;;;;;15.82;7.63;;;;;;;19.65;41.11;95513.19;5012033;28;20217;-62
2022/10/19 09:07:09;;;;;;;19.15;8.38;;;;;;;19.71;42.18;95448.81;5012054;28;20273;-61
2022/10/19 09:09:41;;;;;;;14.70;7.63;;;;;;;19.70;40.33;95389.63;5004069;28;20237;-61
2022/10/19 09:12:11;;;;;;;10.15;5.90;;;;;;;19.43;40.41;95341.88;5010996;28;20195;-61
2022/10/19 09:14:56;;;;;;;21.58;6.38;;;;;;;18.82;40.40;95288.34;5012595;28;20205;-60
2022/10/19 09:17:24;;;;;;;6.82;4.85;;;;;;;18.64;41.77;95254.25;5012359;28;20245;-60
2022/10/19 09:19:50;;;;;;;7.18;4.80;;;;;;;18.37;41.32;95257.97;5012031;28;20280;-62
2022/10/19 09:22:20;;;;;;;9.80;4.07;;;;;;;18.36;41.67;95240.09;5011981;28;20223;-60
2022/10/19 09:24:54;;;;;;;6.32;3.60;;;;;;;18.94;43.27;95193.44;5012057;28;20620;-60
2022/10/19 09:27:23;;;;;;;8.23;3.92;;;;;;;18.47;41.63;95241.53;5010560;28;20195;-63
2022/10/19 09:30:02;;;;;;;10.77;4.03;;;;;;;17.74;43.04;95197.78;5010668;28;20234;-60
2022/10/19 09:32:35;;;;;;;9.40;4.35;;;;;;;17.80;43.88;95171.44;5011587;28;20790;-61
2022/10/19 09:35:21;;;;;;;9.65;4.07;;;;;;;18.03;42.64;95205.84;5012238;28;20214;-61
2022/10/19 09:37:50;;;;;;;6.53;3.90;;;;;;;18.06;43.12;95187.50;5051572;23;20231;-62
2022/10/19 09:40:24;;;;;;;8.00;4.13;;;;;;;17.89;43.32;95175.63;5072003;28;20231;-60
2022/10/19 09:42:55;;;;;;;8.20;4.07;;;;;;;18.17;43.08;95188.94;5071758;28;20192;-60
2022/10/19 09:45:58;;;;;;;7.10;3.65;;;;;;;18.15;42.75;95201.19;5050059;28;20265;-61
2022/10/19 09:48:29;;;;;;;6.65;4.47;;;;;;;18.47;42.59;95205.50;5070018;28;20235;-62
2022/10/19 09:51:00;;;;;;;8.10;3.40;;;;;;;18.58;41.75;95215.47;5069812;28;20612;-60
2022/10/19 09:53:27;;;;;;;4.13;3.17;;;;;;;18.98;41.01;95241.09;5052703;28;20200;-59
2022/10/19 09:55:57;;;;;;;12.27;3.65;;;;;;;18.71;41.37;95219.13;5070148;28;20212;-59
2022/10/19 09:58:28;;;;;;;8.25;3.25;;;;;;;18.68;40.70;95240.06;5059210;28;20219;-60
2022/10/19 10:00:56;;;;;;;4.75;3.22;;;;;;;18.65;40.29;95239.59;5072199;28;20258;-62
2022/10/19 10:03:35;;;;;;;6.88;3.20;;;;;;;18.67;40.80;95222.19;5054081;28;20228;-60
2022/10/19 10:06:04;;;;;;;6.05;2.95;;;;;;;18.70;40.53;95230.41;5070010;28;20211;-59
2022/10/19 10:08:34;;;;;;;6.45;3.20;;;;;;;18.57;40.73;95214.66;5071330;28;20216;-59
2022/10/19 10:11:07;;;;;;;3.38;2.97;;;;;;;18.65;40.01;95229.28;5052603;28;20315;-61
2022/10/19 10:13:39;;;;;;;3.90;2.65;;;;;;;18.78;39.71;95220.09;5069715;28;20227;-60
2022/10/19 10:16:08;;;;;;;4.70;2.70;;;;;;;19.28;40.01;95205.06;5057679;28;20205;-59
2022/10/19 10:19:01;;;;;;;7.57;3.20;;;;;;;20.14;39.14;95217.72;5070443;28;20276;-59
2022/10/19 10:21:49;;;;;;;5.18;2.42;;;;;;;20.59;39.30;95211.69;5070600;28;20629;-58
2022/10/19 10:24:19;;;;;;;3.28;2.92;;;;;;;21.09;37.45;95260.91;5069504;28;20215;-61
2022/10/19 10:26:54;;;;;;;7.75;3.33;;;;;;;20.87;36.15;95282.47;5053049;28;20290;-59
2022/10/19 10:29:25;;;;;;;4.85;3.10;;;;;;;20.52;35.97;95275.38;5070849;28;20301;-59
2022/10/19 10:32:00;;;;;;;3.95;2.80;;;;;;;20.14;37.22;95222.88;5071766;28;20196;-59
2022/10/19 10:34:34;;;;;;;9.52;3.03;;;;;;;20.07;37.10;95214.22;5071175;28;20230;-62
2022/10/19 10:37:01;;;;;;;5.53;3.20;;;;;;;20.01;37.11;95220.91;5070564;28;20205;-60
2022/10/19 10:39:28;;;;;;;5.38;3.28;;;;;;;20.79;37.41;95205.00;5052404;28;20212;-61
2022/10/19 10:41:56;;;;;;;4.78;3.60;;;;;;;21.57;36.23;95231.84;5070683;28;20201;-59
2022/10/19 10:44:28;;;;;;;6.45;3.20;;;;;;;21.49;35.23;95255.25;5070464;28;20278;-61
2022/10/19 10:46:57;;;;;;;7.50;3.30;;;;;;;21.36;35.10;95236.19;5052105;28;20223;-60
2022/10/19 10:49:26;;;;;;;3.22;2.78;;;;;;;21.25;34.76;95245.22;5070869;28;20222;-60
2022/10/19 10:51:55;;;;;;;4.80;3.63;;;;;;;21.61;35.09;95222.72;5070565;28;20192;-62
2022/10/19 10:54:24;;;;;;;5.70;3.50;;;;;;;22.16;34.82;95226.50;5070382;28;20278;-60
2022/10/19 10:57:01;;;;;;;10.55;3.65;;;;;;;20.83;34.66;95204.47;5070664;28;20201;-59
2022/10/19 10:59:36;;;;;;;7.07;3.25;;;;;;;20.41;35.06;95188.78;5069963;28;20594;-62
2022/10/19 11:02:02;;;;;;;11.02;3.70;;;;;;;20.54;35.08;95188.94;5069706;28;20254;-60
2022/10/19 11:04:37;;;;;;;7.55;4.65;;;;;;;20.55;35.32;95172.47;5069917;28;20223;-59
2022/10/19 11:07:22;;;;;;;5.95;2.78;;;;;;;21.00;35.72;95153.38;5070558;28;20195;-60
2022/10/19 11:10:02;;;;;;;4.70;3.05;;;;;;;21.33;35.09;95175.25;5068686;28;20278;-61
2022/10/19 11:12:42;;;;;;;4.22;2.92;;;;;;;21.13;34.21;95191.56;5070848;28;20189;-60
2022/10/19 11:15:14;;;;;;;7.63;3.17;;;;;;;21.62;34.19;95193.28;5070588;28;20208;-60
2022/10/19 11:17:54;;;;;;;7.10;3.47;;;;;;;21.82;34.44;95167.63;5070507;28;20223;-62
2022/10/19 11:20:22;;;;;;;5.50;3.08;;;;;;;22.42;34.89;95143.78;5070826;28;20303;-61
2022/10/19 11:23:01;;;;;;;10.52;3.38;;;;;;;22.05;33.42;95183.78;5047223;28;20275;-60
2022/10/19 11:25:40;;;;;;;5.13;3.10;;;;;;;22.59;33.26;95189.16;5070265;28;20220;-60
2022/10/19 11:28:11;;;;;;;6.97;3.10;;;;;;;22.83;33.03;95185.31;5069847;28;20184;-59
2022/10/19 11:30:51;;;;;;;6.50;3.00;;;;;;;22.42;32.70;95187.84;5067014;28;20585;-61
2022/10/19 11:33:27;;;;;;;4.63;3.13;;;;;;;21.75;32.14;95188.22;5050849;28;20745;-60
2022/10/19 11:36:02;;;;;;;7.03;2.90;;;;;;;22.08;30.65;95235.19;5052450;28;20185;-59
2022/10/19 11:38:55;;;;;;;5.25;2.47;;;;;;;21.69;30.24;95220.03;5069596;28;20281;-60
2022/10/19 11:41:38;;;;;;;6.32;2.63;;;;;;;21.69;30.66;95199.31;5052453;28;20204;-60
2022/10/19 11:44:24;;;;;;;3.42;2.38;;;;;;;21.88;30.05;95213.47;5069893;28;20248;-61
2022/10/19 11:47:16;;;;;;;7.20;2.63;;;;;;;22.17;29.95;95207.38;5069983;28;20213;-61
2022/10/19 11:49:50;;;;;;;5.05;2.78;;;;;;;22.21;30.02;95185.28;5061246;28;20374;-59
2022/10/19 11:52:44;;;;;;;9.20;2.85;;;;;;;22.67;29.68;95186.41;5071156;28;20188;-60